createdAt,value
2023-02-03T07:15:28.619Z,12.7
2023-02-03T07:18:46.837Z,12.7
2023-02-03T07:21:28.294Z,4
2023-02-03T07:24:28.452Z,0.9
2023-02-03T07:27:28.611Z,1.1
2023-02-03T07:30:28.894Z,1.4
2023-02-03T07:33:28.456Z,1.7
2023-02-03T07:36:29.118Z,1.7
2023-02-03T07:39:28.481Z,1.7
2023-02-03T07:42:28.270Z,1.8
2023-02-03T07:45:28.396Z,2
2023-02-03T07:48:28.958Z,2
2023-02-03T07:51:28.954Z,2.4
2023-02-03T07:54:28.323Z,3.1
2023-02-03T07:57:28.727Z,3.7
2023-02-03T08:00:29.092Z,5.1
2023-02-03T08:03:28.967Z,7.9
2023-02-03T08:06:28.265Z,10.1
2023-02-03T08:09:29.449Z,11.7
2023-02-03T08:12:28.896Z,14.8
2023-02-03T08:15:29.197Z,18.2
2023-02-03T08:18:30.928Z,20
2023-02-03T08:21:28.819Z,20.5
2023-02-03T08:24:28.959Z,22.5
2023-02-03T08:27:28.292Z,24.2
2023-02-03T08:30:29.572Z,23.9
2023-02-03T08:33:28.321Z,22.2
2023-02-03T08:36:28.881Z,21.7
2023-02-03T08:39:28.631Z,23.4
2023-02-03T08:42:28.578Z,26.3
2023-02-03T08:45:28.650Z,33.1
2023-02-03T08:48:28.661Z,39.2
2023-02-03T08:51:28.241Z,43.3
2023-02-03T08:54:28.400Z,45.1
2023-02-03T08:57:28.717Z,45.6
2023-02-03T09:00:29.284Z,46
2023-02-03T09:03:28.953Z,47.8
2023-02-03T09:06:28.396Z,50.8
2023-02-03T09:09:28.142Z,53
2023-02-03T09:12:28.886Z,52.2
2023-02-03T09:15:28.141Z,47
2023-02-03T09:18:28.985Z,40.7
2023-02-03T09:21:35.306Z,36.9
2023-02-03T09:24:29.021Z,36.7
2023-02-03T09:27:28.933Z,39.7
2023-02-03T09:30:28.751Z,44.3
2023-02-03T09:33:28.190Z,50.5
2023-02-03T09:36:28.401Z,53.1
2023-02-03T09:39:28.461Z,59.1
2023-02-03T09:42:29.207Z,67.6
2023-02-03T09:45:28.571Z,74.7
2023-02-03T09:48:28.671Z,80.6
2023-02-03T09:51:28.958Z,88.9
2023-02-03T09:54:29.137Z,95.7
2023-02-03T09:57:27.905Z,91.9
2023-02-03T10:00:28.913Z,88.3
2023-02-03T10:03:28.264Z,75.5
2023-02-03T10:06:28.961Z,66
2023-02-03T10:09:28.264Z,59.2
2023-02-03T10:12:28.453Z,52.9
2023-02-03T10:15:28.966Z,48.9
2023-02-03T10:18:28.788Z,50.3
2023-02-03T10:21:28.057Z,55.3
2023-02-03T10:24:28.244Z,69.8
2023-02-03T10:27:28.968Z,90.1
2023-02-03T10:30:28.821Z,96.5
2023-02-03T10:33:28.962Z,96.6
2023-02-03T10:36:29.062Z,97.7
2023-02-03T10:39:28.397Z,101.8
2023-02-03T10:42:28.466Z,102.8
2023-02-03T10:45:28.157Z,92.3
2023-02-03T10:48:28.474Z,85.1
2023-02-03T10:51:28.368Z,80
2023-02-03T10:54:28.643Z,69.8
2023-02-03T10:57:28.612Z,56
2023-02-03T11:00:28.938Z,49.2
2023-02-03T11:03:29.127Z,51.7
2023-02-03T11:06:28.342Z,69.8
2023-02-03T11:09:28.234Z,95
2023-02-03T11:12:28.985Z,120.1
2023-02-03T11:15:29.131Z,136.4
2023-02-03T11:18:29.227Z,149.7
2023-02-03T11:21:28.317Z,136.2
2023-02-03T11:24:28.158Z,109.7
2023-02-03T11:27:28.647Z,86.6
2023-02-03T11:30:35.952Z,93.3
2023-02-03T11:33:29.051Z,98.1
2023-02-03T11:36:28.718Z,101.8
2023-02-03T11:39:28.162Z,103.3
2023-02-03T11:42:28.566Z,104.6
2023-02-03T11:45:28.811Z,108.6
2023-02-03T11:48:29.136Z,107.1
2023-02-03T11:51:32.492Z,107.5
2023-02-03T11:54:28.798Z,109.3
2023-02-03T11:57:28.075Z,112.7
2023-02-03T12:00:44.006Z,120
2023-02-03T12:03:28.798Z,125.6
2023-02-03T12:06:28.295Z,120
2023-02-03T12:09:28.484Z,108.4
2023-02-03T12:12:28.781Z,100.5
2023-02-03T12:15:28.850Z,98.5
2023-02-03T12:18:28.964Z,95.3
2023-02-03T12:21:29.104Z,83.3
2023-02-03T12:24:28.315Z,74.5
2023-02-03T12:27:29.569Z,65.6
2023-02-03T12:30:30.863Z,57
2023-02-03T12:33:28.185Z,50.2
2023-02-03T12:36:28.258Z,47.2
2023-02-03T12:39:28.626Z,45
2023-02-03T12:42:28.345Z,40.2
2023-02-03T12:45:29.044Z,40.6
2023-02-03T12:48:28.882Z,39.3
2023-02-03T12:51:28.878Z,36.7
2023-02-03T12:54:29.221Z,32.4
2023-02-03T12:57:29.442Z,29.4
2023-02-03T13:00:33.923Z,27.2
2023-02-03T13:03:28.091Z,25
2023-02-03T13:06:28.246Z,23.7
2023-02-03T13:09:28.475Z,23
2023-02-03T13:12:28.320Z,22.3
2023-02-03T13:15:29.592Z,21.4
2023-02-03T13:18:29.136Z,20.7
2023-02-03T13:21:28.641Z,20.9
2023-02-03T13:24:28.887Z,21.4
2023-02-03T13:27:28.299Z,23
2023-02-03T13:30:32.340Z,24.2
2023-02-03T13:33:28.716Z,25.7
2023-02-03T13:36:29.196Z,26.7
2023-02-03T13:39:28.635Z,28.5
2023-02-03T13:42:28.811Z,29.9
2023-02-03T13:45:29.320Z,30.7
2023-02-03T13:48:28.875Z,28.3
2023-02-03T13:51:28.451Z,24.8
2023-02-03T13:54:28.615Z,22.5
2023-02-03T13:57:28.768Z,22.1
2023-02-03T14:00:44.433Z,22.4
2023-02-03T14:03:28.922Z,23.5
2023-02-03T14:06:28.934Z,25.5
2023-02-03T14:09:29.041Z,27.3
2023-02-03T14:12:28.268Z,24.9
2023-02-03T14:15:28.787Z,20.5
2023-02-03T14:18:28.992Z,18.4
2023-02-03T14:21:29.113Z,14.7
2023-02-03T14:24:28.427Z,13.5
2023-02-03T14:27:28.636Z,13.2
2023-02-03T14:30:28.763Z,13.3
2023-02-03T14:33:28.461Z,13.8
2023-02-03T14:36:28.772Z,14.4
2023-02-03T14:39:28.464Z,14.2
2023-02-03T14:42:28.723Z,13.3
2023-02-03T14:45:29.117Z,13.4
2023-02-03T14:48:28.632Z,14.5
2023-02-03T14:51:28.771Z,15.9
2023-02-03T14:54:28.850Z,18.9
2023-02-03T14:57:28.300Z,21.4
2023-02-03T15:00:29.101Z,22.8
2023-02-03T15:03:28.404Z,24.4
2023-02-03T15:06:34.832Z,24.3
2023-02-03T15:09:28.806Z,24.3
2023-02-03T15:12:29.230Z,21.5
2023-02-03T15:15:28.979Z,19.7
2023-02-03T15:18:28.961Z,16.6
2023-02-03T15:21:28.374Z,12.8
2023-02-03T15:24:28.722Z,8.9
2023-02-03T15:27:28.377Z,6.5
2023-02-03T15:30:28.613Z,4.9
2023-02-03T15:33:28.707Z,4.5
2023-02-03T15:36:28.717Z,4
2023-02-03T15:39:29.090Z,3.3
2023-02-03T15:42:28.295Z,3
2023-02-03T15:45:28.309Z,2.6
2023-02-03T15:48:28.457Z,2.5
2023-02-03T15:51:28.215Z,2.1
2023-02-03T15:54:28.325Z,4
2023-02-03T15:57:28.278Z,6.1
2023-02-03T16:00:28.480Z,9.4
2023-02-03T16:03:28.796Z,19.6
2023-02-03T16:06:28.745Z,25.5
2023-02-03T16:09:28.894Z,34.8
2023-02-03T16:12:29.043Z,34.9
2023-02-03T16:15:29.479Z,35
2023-02-03T16:18:29.228Z,34.7
2023-02-03T16:21:28.562Z,34.4
2023-02-03T16:24:28.641Z,34.2
2023-02-03T16:27:28.559Z,34.2
2023-02-03T16:30:28.880Z,34.4
2023-02-03T16:33:28.956Z,34.6
2023-02-03T16:36:29.404Z,34.9
2023-02-03T16:39:28.882Z,35
2023-02-03T16:42:28.262Z,35
2023-02-03T16:45:28.452Z,35
2023-02-03T16:48:28.344Z,35
2023-02-03T16:51:28.818Z,34.9
2023-02-03T16:54:28.669Z,34.8
2023-02-03T16:57:29.040Z,34.8
2023-02-03T17:00:28.426Z,34.9
2023-02-03T17:03:28.964Z,34.9
2023-02-03T17:06:29.122Z,34.9
2023-02-03T17:09:28.639Z,34.9
2023-02-03T17:12:28.959Z,35
2023-02-03T17:15:29.428Z,35
2023-02-03T17:18:28.282Z,35.2
2023-02-03T17:21:28.398Z,35.5
2023-02-03T17:24:28.326Z,35.8
2023-02-03T17:27:28.962Z,35.8
2023-02-03T17:30:28.675Z,35.8
2023-02-03T17:33:28.568Z,35.8
2023-02-03T17:36:28.158Z,35.8
2023-02-03T17:54:28.872Z,35.9
2023-02-03T17:57:29.946Z,35.8
2023-02-03T18:00:28.790Z,35.8
2023-02-03T18:03:28.679Z,35.8
2023-02-03T18:06:28.817Z,35.8
2023-02-03T18:09:28.906Z,35.8
2023-02-03T18:12:29.125Z,32.6
2023-02-03T18:15:28.587Z,22.9
2023-02-03T18:18:28.753Z,13.2
2023-02-03T18:21:28.985Z,10
2023-02-03T18:24:28.378Z,10
2023-02-03T18:27:28.736Z,10
2023-02-03T18:30:29.522Z,10
2023-02-03T18:33:29.085Z,10
2023-02-03T18:36:29.047Z,10
2023-02-03T18:39:28.486Z,10
2023-02-03T18:42:28.461Z,10
2023-02-03T18:45:28.836Z,10
2023-02-03T18:48:29.025Z,10
2023-02-03T18:51:28.601Z,10
2023-02-03T18:54:28.996Z,10
2023-02-03T18:57:28.448Z,10
2023-02-03T19:00:32.518Z,10
2023-02-03T19:03:28.841Z,10
2023-02-03T19:06:30.041Z,10
2023-02-03T19:09:33.789Z,10
2023-02-03T19:12:28.600Z,10
2023-02-03T19:15:28.924Z,10
2023-02-03T19:18:28.311Z,9.9
2023-02-03T19:21:28.131Z,9.8
2023-02-03T19:24:28.369Z,9.7
2023-02-03T19:27:28.475Z,9.8
2023-02-03T19:30:29.431Z,9.6
2023-02-03T19:33:28.472Z,9.4
2023-02-03T19:36:28.446Z,9.3
2023-02-03T19:39:28.110Z,9.4
2023-02-03T19:42:28.472Z,9.6
2023-02-03T19:45:28.306Z,9.7
2023-02-03T19:48:28.657Z,9.8
2023-02-03T19:51:28.628Z,9.8
2023-02-03T19:54:28.984Z,9.9
2023-02-03T19:57:28.160Z,9.8
2023-02-03T20:00:29.333Z,9.8
2023-02-03T20:03:28.687Z,9.9
2023-02-03T20:06:28.873Z,9.9
2023-02-03T20:09:28.795Z,10
2023-02-03T20:12:29.115Z,9.8
2023-02-03T20:15:28.483Z,9.7
2023-02-03T20:18:28.560Z,9.5
2023-02-03T20:21:28.627Z,9.6
2023-02-03T20:24:28.846Z,9.8
2023-02-03T20:27:28.021Z,9.8
2023-02-03T20:30:29.093Z,9.8
2023-02-03T20:33:28.530Z,9.6
2023-02-03T20:36:28.554Z,9.5
2023-02-03T20:39:28.679Z,9.4
2023-02-03T20:42:28.934Z,9.2
2023-02-03T20:45:29.519Z,9.2
2023-02-03T20:48:28.879Z,9.2
2023-02-03T20:51:28.765Z,9.2
2023-02-03T20:54:28.142Z,9.2
2023-02-03T20:57:28.832Z,9.2
2023-02-03T21:00:29.176Z,9.2
2023-02-03T21:03:28.746Z,9.2
2023-02-03T21:06:28.881Z,9.2
2023-02-03T21:09:28.853Z,9.2
2023-02-03T21:12:29.018Z,9.2
2023-02-03T21:15:28.135Z,9.2
2023-02-03T21:18:28.704Z,9.2
2023-02-03T21:21:28.732Z,9.2
2023-02-03T21:24:28.868Z,9.1
2023-02-03T21:27:29.026Z,9.1
2023-02-03T21:30:28.893Z,9.1
2023-02-03T21:33:28.225Z,9.2
2023-02-03T21:36:29.099Z,9.2
2023-02-03T21:39:28.403Z,9.3
2023-02-03T21:42:28.544Z,9.1
2023-02-03T21:45:28.156Z,9.1
2023-02-03T21:48:28.471Z,9
2023-02-03T21:51:28.709Z,9.2
2023-02-03T21:54:28.960Z,9.2
2023-02-03T21:57:28.747Z,9.2
2023-02-03T22:00:28.517Z,9
2023-02-03T22:03:29.208Z,8.9
2023-02-03T22:06:28.898Z,9.1
2023-02-03T22:09:28.314Z,9.5
2023-02-03T22:12:28.494Z,9.7
2023-02-03T22:15:28.322Z,9.6
2023-02-03T22:18:28.827Z,9.2
2023-02-03T22:21:28.725Z,9
2023-02-03T22:24:28.937Z,9
2023-02-03T22:27:28.647Z,9
2023-02-03T22:30:29.523Z,9.2
2023-02-03T22:33:29.171Z,9.2
2023-02-03T22:36:28.910Z,9.2
2023-02-03T22:39:29.167Z,9.2
2023-02-03T22:42:28.366Z,9.2
2023-02-03T22:45:28.772Z,9.2
2023-02-03T22:48:28.887Z,9.2
2023-02-03T22:51:29.167Z,9.2
2023-02-03T22:54:28.846Z,9.2
2023-02-03T22:57:28.896Z,9.2
2023-02-03T23:00:30.422Z,9.2
2023-02-03T23:03:28.928Z,9.2
2023-02-03T23:06:28.870Z,9.2
2023-02-03T23:09:28.898Z,9.2
2023-02-03T23:12:28.289Z,9.2
2023-02-03T23:15:29.261Z,9.2
2023-02-03T23:18:29.107Z,9.2
2023-02-03T23:21:28.130Z,9.2
2023-02-03T23:24:28.721Z,9.2
2023-02-03T23:27:28.856Z,9.2
2023-02-03T23:30:29.612Z,9.2
2023-02-03T23:33:28.643Z,9.2
2023-02-03T23:36:28.858Z,9.2
2023-02-03T23:39:28.948Z,9.2
2023-02-03T23:42:28.913Z,9.2
2023-02-03T23:45:28.859Z,9.2
2023-02-03T23:48:28.291Z,9.2
2023-02-03T23:51:28.368Z,9.2
